createdAt,value
2023-03-01T00:00:12.371Z,11.48
2023-03-01T00:05:15.690Z,11.43
2023-03-01T00:10:19.481Z,10.15
2023-03-01T00:15:26.621Z,11.23
2023-03-01T00:20:30.065Z,11.13
2023-03-01T00:25:33.552Z,10.15
2023-03-01T00:30:38.507Z,9.75
2023-03-01T00:35:42.307Z,10.65
2023-03-01T00:40:45.823Z,9.93
2023-03-01T00:45:50.831Z,10.90
2023-03-01T00:50:54.279Z,10.57
2023-03-01T00:55:59.151Z,10.95
2023-03-01T01:01:24.176Z,10.00
2023-03-01T01:06:30.756Z,9.63
2023-03-01T01:11:37.630Z,11.57
2023-03-01T01:17:04.727Z,11.63
2023-03-01T01:22:08.530Z,11.90
2023-03-01T01:27:15.062Z,10.73
2023-03-01T01:32:27.095Z,12.38
2023-03-01T01:37:33.056Z,12.32
2023-03-01T01:42:37.570Z,10.63
2023-03-01T01:47:42.404Z,10.13
2023-03-01T01:52:47.455Z,12.23
2023-03-01T01:57:55.672Z,10.27
2023-03-01T02:03:04.279Z,11.68
2023-03-01T02:08:13.426Z,11.85
2023-03-01T02:13:17.245Z,10.52
2023-03-01T02:18:25.595Z,11.00
2023-03-01T02:23:29.654Z,10.43
2023-03-01T02:28:37.426Z,11.25
2023-03-01T02:33:42.099Z,10.65
2023-03-01T02:38:46.515Z,10.80
2023-03-01T02:43:51.574Z,10.70
2023-03-01T02:55:58.783Z,9.50
2023-03-01T03:01:04.913Z,10.80
2023-03-01T03:06:08.885Z,11.40
2023-03-01T03:11:54.591Z,11.05
2023-03-01T03:18:37.850Z,12.57
2023-03-01T04:14:55.236Z,12.38
2023-03-01T04:20:36.141Z,12.25
2023-03-01T04:26:02.213Z,11.20
2023-03-01T04:31:18.542Z,11.95
2023-03-01T04:36:57.919Z,11.10
2023-03-01T05:02:56.301Z,11.65
2023-03-01T05:14:57.891Z,11.38
2023-03-01T05:20:14.209Z,11.00
2023-03-01T05:25:43.930Z,12.40
2023-03-01T05:30:47.433Z,10.95
2023-03-01T05:36:01.782Z,11.68
2023-03-01T05:41:05.654Z,11.82
2023-03-01T05:46:14.449Z,11.27
2023-03-01T05:51:19.735Z,11.90
2023-03-01T05:56:24.612Z,11.65
2023-03-01T06:01:30.836Z,12.48
2023-03-01T06:06:40.631Z,12.43
2023-03-01T06:11:53.613Z,12.57
2023-03-01T06:16:57.412Z,12.18
2023-03-01T06:22:03.363Z,12.77
2023-03-01T06:27:10.492Z,11.55
2023-03-01T06:32:14.057Z,13.15
2023-03-01T06:37:18.993Z,12.15
2023-03-01T06:42:22.662Z,13.40
2023-03-01T06:47:27.446Z,13.27
2023-03-01T06:52:40.115Z,14.13
2023-03-01T06:57:47.299Z,12.68
2023-03-01T07:03:00.961Z,12.73
2023-03-01T07:08:07.859Z,14.52
2023-03-01T07:13:11.263Z,13.77
2023-03-01T07:18:14.666Z,13.68
2023-03-01T07:23:19.635Z,22.38
2023-03-01T07:28:24.346Z,12.88
2023-03-01T07:33:28.111Z,13.05
2023-03-01T07:38:36.485Z,13.00
2023-03-01T07:43:40.030Z,16.27
2023-03-01T07:48:43.602Z,15.70
2023-03-01T07:53:49.504Z,16.88
2023-03-01T07:58:53.083Z,13.68
2023-03-01T08:03:56.640Z,15.02
2023-03-01T08:09:04.165Z,14.23
2023-03-01T08:14:08.471Z,15.02
2023-03-01T08:19:15.846Z,14.98
2023-03-01T08:24:24.343Z,14.55
2023-03-01T08:29:28.194Z,15.43
2023-03-01T08:34:37.031Z,13.98
2023-03-01T08:39:50.543Z,13.53
2023-03-01T08:44:57.831Z,14.43
2023-03-01T08:50:01.736Z,14.18
2023-03-01T08:55:08.932Z,14.02
2023-03-01T09:00:15.890Z,14.25
2023-03-01T09:05:20.397Z,14.70
2023-03-01T09:10:26.848Z,14.85
2023-03-01T09:15:32.407Z,13.80
2023-03-01T09:20:47.000Z,14.32
2023-03-01T09:25:51.973Z,14.52
2023-03-01T09:30:55.503Z,15.50
2023-03-01T09:36:00.454Z,15.15
2023-03-01T09:41:13.889Z,15.10
2023-03-01T09:46:20.776Z,15.02
2023-03-01T09:51:29.531Z,14.73
2023-03-01T09:56:38.651Z,14.95
2023-03-01T10:01:48.571Z,15.35
2023-03-01T10:12:04.839Z,13.95
2023-03-01T10:17:22.267Z,15.93
2023-03-01T10:22:30.142Z,14.63
2023-03-01T10:27:45.482Z,13.63
2023-03-01T10:32:51.553Z,14.43
2023-03-01T10:38:06.768Z,14.52
2023-03-01T10:43:14.508Z,13.85
2023-03-01T10:48:20.507Z,16.35
2023-03-01T10:53:27.981Z,14.65
2023-03-01T10:58:34.373Z,14.43
2023-03-01T11:03:39.830Z,13.73
2023-03-01T11:08:45.183Z,13.60
2023-03-01T11:13:58.661Z,14.77
2023-03-01T11:19:18.608Z,14.40
2023-03-01T11:24:26.639Z,13.20
2023-03-01T11:29:48.586Z,14.65
2023-03-01T11:34:57.404Z,13.73
2023-03-01T11:40:10.300Z,14.57
2023-03-01T11:45:15.628Z,13.57
2023-03-01T11:50:28.438Z,13.85
2023-03-01T11:55:48.925Z,14.15
2023-03-01T12:01:20.913Z,14.20
2023-03-01T12:06:45.296Z,13.98
2023-03-01T12:12:05.567Z,12.35
2023-03-01T12:17:33.523Z,13.00
2023-03-01T12:22:46.668Z,12.00
2023-03-01T12:28:14.843Z,12.50
2023-03-01T12:33:55.811Z,13.43
2023-03-01T12:39:34.201Z,13.32
2023-03-01T12:45:17.480Z,13.02
2023-03-01T12:50:54.546Z,15.27
2023-03-01T12:56:10.307Z,14.00
2023-03-01T13:01:25.192Z,13.85
2023-03-01T13:06:43.226Z,13.23
2023-03-01T13:11:48.716Z,14.40
2023-03-01T13:16:53.124Z,13.52
2023-03-01T13:21:59.240Z,13.13
2023-03-01T13:27:26.064Z,14.38
2023-03-01T13:32:48.814Z,13.48
2023-03-01T13:37:54.554Z,12.25
2023-03-01T13:43:05.708Z,13.30
2023-03-01T13:48:20.918Z,12.82
2023-03-01T13:53:29.090Z,13.70
2023-03-01T13:58:37.060Z,13.73
2023-03-01T14:03:44.527Z,13.73
2023-03-01T14:08:54.149Z,13.05
2023-03-01T14:14:16.254Z,12.97
2023-03-01T14:19:33.126Z,14.32
2023-03-01T14:24:43.341Z,12.23
2023-03-01T14:29:58.196Z,13.13
2023-03-01T14:35:03.840Z,13.27
2023-03-01T14:40:24.150Z,13.05
2023-03-01T14:45:31.635Z,12.88
2023-03-01T14:50:38.596Z,12.40
2023-03-01T14:55:48.216Z,12.75
2023-03-01T15:00:54.863Z,13.45
2023-03-01T15:05:59.322Z,12.35
2023-03-01T15:11:09.226Z,14.10
2023-03-01T15:16:15.127Z,13.05
2023-03-01T15:21:24.439Z,12.98
2023-03-01T15:26:33.165Z,13.15
2023-03-01T15:31:40.629Z,14.43
2023-03-01T15:36:46.861Z,14.48
2023-03-01T15:41:52.496Z,13.52
2023-03-01T15:46:56.779Z,13.18
2023-03-01T15:52:00.558Z,12.82
2023-03-01T15:57:06.225Z,12.52
2023-03-01T16:02:12.300Z,13.77
2023-03-01T16:07:16.273Z,13.52
2023-03-01T16:12:22.423Z,13.35
2023-03-01T16:17:26.941Z,13.32
2023-03-01T16:22:30.799Z,13.75
2023-03-01T16:27:36.959Z,12.68
2023-03-01T16:32:41.234Z,12.93
2023-03-01T16:37:46.109Z,12.70
2023-03-01T16:42:52.294Z,12.13
2023-03-01T16:47:56.433Z,13.75
2023-03-01T16:53:00.859Z,12.85
2023-03-01T16:58:07.489Z,13.52
2023-03-01T17:03:11.723Z,13.18
2023-03-01T17:08:16.012Z,13.13
2023-03-01T17:13:22.809Z,12.00
2023-03-01T17:18:27.092Z,13.02
2023-03-01T17:23:31.731Z,13.05
2023-03-01T17:28:38.520Z,13.65
2023-03-01T17:33:43.099Z,12.45
2023-03-01T17:39:52.926Z,12.05
2023-03-01T17:52:00.565Z,12.50
2023-03-01T17:57:04.304Z,12.88
2023-03-01T18:02:08.235Z,12.63
2023-03-01T18:07:18.131Z,11.68
2023-03-01T18:12:21.715Z,12.50
2023-03-01T18:17:26.785Z,13.00
2023-03-01T18:22:35.002Z,12.55
2023-03-01T18:27:38.667Z,12.50
2023-03-01T18:32:42.562Z,12.90
2023-03-01T18:37:47.599Z,13.05
2023-03-01T18:42:54.059Z,13.80
2023-03-01T18:47:57.679Z,12.88
2023-03-01T18:53:03.906Z,13.68
2023-03-01T18:58:07.728Z,13.80
2023-03-01T19:03:11.546Z,12.45
2023-03-01T19:08:16.571Z,12.90
2023-03-01T19:13:20.089Z,13.20
2023-03-01T19:18:23.521Z,13.15
2023-03-01T19:23:28.883Z,13.45
2023-03-01T19:28:32.435Z,13.40
2023-03-01T19:33:36.532Z,13.73
2023-03-01T19:38:43.546Z,13.98
2023-03-01T19:43:47.409Z,13.35
2023-03-01T19:48:53.408Z,13.30
2023-03-01T19:53:58.300Z,14.77
2023-03-01T19:59:04.320Z,14.27
2023-03-01T20:04:09.049Z,13.63
2023-03-01T20:09:21.488Z,13.27
2023-03-01T20:14:25.764Z,15.18
2023-03-01T20:19:29.189Z,14.65
2023-03-01T20:24:34.044Z,15.15
2023-03-01T20:29:37.619Z,14.48
2023-03-01T20:34:41.088Z,14.32
2023-03-01T20:39:45.996Z,14.77
2023-03-01T20:44:49.522Z,15.23
2023-03-01T20:49:53.343Z,15.07
2023-03-01T20:55:00.328Z,16.00
2023-03-01T21:00:13.238Z,15.02
2023-03-01T21:05:16.654Z,14.10
2023-03-01T21:10:22.109Z,14.60
2023-03-01T21:15:30.714Z,14.95
2023-03-01T21:20:34.302Z,14.80
2023-03-01T21:25:39.231Z,15.02
2023-03-01T21:30:43.377Z,14.43
2023-03-01T21:35:46.977Z,15.82
2023-03-01T21:40:51.863Z,18.73
2023-03-01T21:45:55.288Z,15.88
2023-03-01T21:50:59.622Z,15.40
2023-03-01T21:56:05.513Z,17.05
2023-03-01T22:01:11.680Z,17.15
2023-03-01T22:06:22.902Z,15.00
2023-03-01T22:11:28.869Z,14.88
2023-03-01T22:16:34.398Z,15.02
2023-03-01T22:21:40.087Z,14.98
2023-03-01T22:26:46.904Z,13.93
2023-03-01T22:31:51.099Z,14.85
2023-03-01T22:36:54.944Z,14.32
2023-03-01T22:41:59.913Z,13.50
2023-03-01T22:47:03.332Z,14.50
2023-03-01T22:52:06.858Z,14.63
2023-03-01T22:57:12.337Z,14.35
2023-03-01T23:02:15.948Z,13.82
2023-03-01T23:07:19.381Z,13.13
2023-03-01T23:12:24.129Z,14.60
2023-03-01T23:17:27.619Z,14.38
2023-03-01T23:22:31.862Z,15.07
2023-03-01T23:27:38.792Z,13.77
2023-03-01T23:32:42.187Z,14.90
2023-03-01T23:37:46.608Z,14.98
2023-03-01T23:42:51.348Z,15.27
2023-03-01T23:47:55.601Z,14.38
2023-03-01T23:52:59.273Z,14.48
2023-03-01T23:58:04.317Z,13.65
